sensor_id;sensor_type;location;lat;lon;timestamp;pressure;altitude;pressure_sealevel;temperature;humidity
9289;BME280;4683;50.864;12.086;2022-09-12T00:01:35;99251.25;;;15.07;100.00
9289;BME280;4683;50.864;12.086;2022-09-12T00:04:03;99251.44;;;15.12;100.00
9289;BME280;4683;50.864;12.086;2022-09-12T00:06:34;99257.16;;;15.15;100.00
9289;BME280;4683;50.864;12.086;2022-09-12T00:09:07;99255.53;;;15.14;100.00
9289;BME280;4683;50.864;12.086;2022-09-12T00:11:36;99255.31;;;15.16;100.00
9289;BME280;4683;50.864;12.086;2022-09-12T00:14:09;99263.28;;;15.16;100.00
9289;BME280;4683;50.864;12.086;2022-09-12T00:16:38;99259.81;;;15.15;100.00
9289;BME280;4683;50.864;12.086;2022-09-12T00:19:06;99261.66;;;15.15;100.00
9289;BME280;4683;50.864;12.086;2022-09-12T00:21:38;99251.44;;;15.12;100.00
9289;BME280;4683;50.864;12.086;2022-09-12T00:24:08;99252.47;;;15.11;100.00
9289;BME280;4683;50.864;12.086;2022-09-12T00:26:38;99254.72;;;15.07;100.00
9289;BME280;4683;50.864;12.086;2022-09-12T00:29:11;99256.97;;;15.04;100.00
9289;BME280;4683;50.864;12.086;2022-09-12T00:31:42;99259.22;;;15.00;100.00
9289;BME280;4683;50.864;12.086;2022-09-12T00:34:11;99264.13;;;14.96;100.00
9289;BME280;4683;50.864;12.086;2022-09-12T00:36:40;99256.75;;;14.92;100.00
9289;BME280;4683;50.864;12.086;2022-09-12T00:39:09;99266.16;;;14.88;100.00
9289;BME280;4683;50.864;12.086;2022-09-12T00:41:43;99260.22;;;14.79;100.00
9289;BME280;4683;50.864;12.086;2022-09-12T00:44:49;99265.69;;;14.58;100.00
9289;BME280;4683;50.864;12.086;2022-09-12T00:47:22;99264.28;;;14.55;100.00
9289;BME280;4683;50.864;12.086;2022-09-12T00:49:58;99259.94;;;14.47;100.00
9289;BME280;4683;50.864;12.086;2022-09-12T00:52:32;99262.38;;;14.42;100.00
9289;BME280;4683;50.864;12.086;2022-09-12T00:55:05;99257.88;;;14.36;100.00
9289;BME280;4683;50.864;12.086;2022-09-12T00:57:39;99252.13;;;14.26;100.00
9289;BME280;4683;50.864;12.086;2022-09-12T01:00:14;99260.28;;;14.18;100.00
9289;BME280;4683;50.864;12.086;2022-09-12T01:02:47;99257.78;;;14.10;100.00
9289;BME280;4683;50.864;12.086;2022-09-12T01:05:16;99261.84;;;14.06;100.00
9289;BME280;4683;50.864;12.086;2022-09-12T01:07:45;99256.94;;;14.03;100.00
9289;BME280;4683;50.864;12.086;2022-09-12T01:10:14;99257.34;;;14.00;100.00
9289;BME280;4683;50.864;12.086;2022-09-12T01:12:44;99260.38;;;13.96;100.00
9289;BME280;4683;50.864;12.086;2022-09-12T01:15:13;99245.50;;;13.95;100.00
9289;BME280;4683;50.864;12.086;2022-09-12T01:17:56;99247.28;;;13.88;100.00
9289;BME280;4683;50.864;12.086;2022-09-12T01:20:49;99247.25;;;13.82;100.00
9289;BME280;4683;50.864;12.086;2022-09-12T01:23:52;99249.63;;;13.70;100.00
9289;BME280;4683;50.864;12.086;2022-09-12T01:29:44;99241.91;;;13.68;100.00
9289;BME280;4683;50.864;12.086;2022-09-12T01:32:29;99233.13;;;13.68;100.00
9289;BME280;4683;50.864;12.086;2022-09-12T01:35:06;99237.63;;;13.67;100.00
9289;BME280;4683;50.864;12.086;2022-09-12T01:37:52;99244.13;;;13.65;100.00
9289;BME280;4683;50.864;12.086;2022-09-12T01:40:26;99244.13;;;13.65;100.00
9289;BME280;4683;50.864;12.086;2022-09-12T01:43:05;99246.56;;;13.66;100.00
9289;BME280;4683;50.864;12.086;2022-09-12T01:45:42;99246.16;;;13.69;100.00
9289;BME280;4683;50.864;12.086;2022-09-12T01:48:18;99245.75;;;13.66;100.00
9289;BME280;4683;50.864;12.086;2022-09-12T01:50:51;99246.31;;;13.61;100.00
9289;BME280;4683;50.864;12.086;2022-09-12T01:53:26;99242.63;;;13.56;100.00
9289;BME280;4683;50.864;12.086;2022-09-12T01:56:06;99248.53;;;13.58;100.00
9289;BME280;4683;50.864;12.086;2022-09-12T01:58:40;99245.31;;;13.62;100.00
9289;BME280;4683;50.864;12.086;2022-09-12T02:01:13;99242.06;;;13.67;100.00
9289;BME280;4683;50.864;12.086;2022-09-12T02:03:49;99246.75;;;13.65;100.00
9289;BME280;4683;50.864;12.086;2022-09-12T02:06:22;99247.00;;;13.70;100.00
9289;BME280;4683;50.864;12.086;2022-09-12T02:08:56;99248.63;;;13.71;100.00
9289;BME280;4683;50.864;12.086;2022-09-12T02:11:26;99248.63;;;13.71;100.00
9289;BME280;4683;50.864;12.086;2022-09-12T02:14:02;99250.66;;;13.69;100.00
9289;BME280;4683;50.864;12.086;2022-09-12T02:16:36;99251.69;;;13.68;100.00
9289;BME280;4683;50.864;12.086;2022-09-12T02:19:13;99248.59;;;13.64;100.00
9289;BME280;4683;50.864;12.086;2022-09-12T02:21:49;99251.03;;;13.59;100.00
9289;BME280;4683;50.864;12.086;2022-09-12T02:24:20;99248.31;;;13.53;100.00
9289;BME280;4683;50.864;12.086;2022-09-12T02:27:00;99247.06;;;13.49;100.00
9289;BME280;4683;50.864;12.086;2022-09-12T02:29:30;99250.97;;;13.53;100.00
9289;BME280;4683;50.864;12.086;2022-09-12T02:32:03;99239.97;;;13.49;100.00
9289;BME280;4683;50.864;12.086;2022-09-12T02:34:45;99242.41;;;13.51;100.00
9289;BME280;4683;50.864;12.086;2022-09-12T02:37:22;99242.41;;;13.51;100.00
9289;BME280;4683;50.864;12.086;2022-09-12T02:39:53;99242.41;;;13.51;100.00
9289;BME280;4683;50.864;12.086;2022-09-12T02:42:30;99233.81;;;13.49;100.00
9289;BME280;4683;50.864;12.086;2022-09-12T02:44:59;99233.59;;;13.43;100.00
9289;BME280;4683;50.864;12.086;2022-09-12T02:47:31;99230.53;;;13.40;100.00
9289;BME280;4683;50.864;12.086;2022-09-12T02:50:03;99226.03;;;13.40;100.00
9289;BME280;4683;50.864;12.086;2022-09-12T02:52:34;99230.91;;;13.37;100.00
9289;BME280;4683;50.864;12.086;2022-09-12T02:55:04;99223.16;;;13.35;100.00
9289;BME280;4683;50.864;12.086;2022-09-12T02:57:33;99224.16;;;13.34;100.00
9289;BME280;4683;50.864;12.086;2022-09-12T03:00:02;99218.81;;;13.00;100.00
9289;BME280;4683;50.864;12.086;2022-09-12T03:02:57;99209.25;;;12.77;100.00
9289;BME280;4683;50.864;12.086;2022-09-12T03:05:33;99214.13;;;13.02;100.00
9289;BME280;4683;50.864;12.086;2022-09-12T03:08:44;99221.28;;;13.08;100.00
9289;BME280;4683;50.864;12.086;2022-09-12T03:11:48;99222.06;;;13.02;100.00
9289;BME280;4683;50.864;12.086;2022-09-12T03:14:38;99223.31;;;13.06;100.00
9289;BME280;4683;50.864;12.086;2022-09-12T03:17:18;99222.78;;;13.17;100.00
9289;BME280;4683;50.864;12.086;2022-09-12T03:19:56;99221.38;;;13.21;100.00
9289;BME280;4683;50.864;12.086;2022-09-12T03:22:36;99216.09;;;13.21;100.00
9289;BME280;4683;50.864;12.086;2022-09-12T03:25:15;99220.56;;;13.20;100.00
9289;BME280;4683;50.864;12.086;2022-09-12T03:27:53;99221.59;;;13.19;100.00
9289;BME280;4683;50.864;12.086;2022-09-12T03:30:24;99217.78;;;13.22;100.00
9289;BME280;4683;50.864;12.086;2022-09-12T03:32:54;99216.09;;;13.21;100.00
9289;BME280;4683;50.864;12.086;2022-09-12T03:35:30;99215.47;;;13.19;100.00
9289;BME280;4683;50.864;12.086;2022-09-12T03:38:01;99219.13;;;13.18;100.00
9289;BME280;4683;50.864;12.086;2022-09-12T03:40:31;99217.66;;;13.09;100.00
9289;BME280;4683;50.864;12.086;2022-09-12T03:43:00;99220.91;;;13.11;100.00
9289;BME280;4683;50.864;12.086;2022-09-12T03:45:30;99221.69;;;13.05;100.00
9289;BME280;4683;50.864;12.086;2022-09-12T03:48:00;99219.84;;;13.05;100.00
9289;BME280;4683;50.864;12.086;2022-09-12T03:50:29;99232.09;;;13.06;100.00
9289;BME280;4683;50.864;12.086;2022-09-12T03:52:58;99231.88;;;13.08;100.00
9289;BME280;4683;50.864;12.086;2022-09-12T03:55:28;99228.66;;;13.12;100.00
9289;BME280;4683;50.864;12.086;2022-09-12T03:57:57;99225.00;;;13.13;100.00
9289;BME280;4683;50.864;12.086;2022-09-12T04:00:25;99232.75;;;13.15;100.00
9289;BME280;4683;50.864;12.086;2022-09-12T04:02:55;99237.69;;;13.18;100.00
9289;BME280;4683;50.864;12.086;2022-09-12T04:05:23;99228.06;;;13.17;100.00
9289;BME280;4683;50.864;12.086;2022-09-12T04:07:52;99231.13;;;13.14;100.00
9289;BME280;4683;50.864;12.086;2022-09-12T04:10:21;99227.84;;;13.12;100.00
9289;BME280;4683;50.864;12.086;2022-09-12T04:12:52;99232.31;;;13.11;100.00
9289;BME280;4683;50.864;12.086;2022-09-12T04:15:24;99228.84;;;13.11;100.00
9289;BME280;4683;50.864;12.086;2022-09-12T04:17:52;99224.19;;;13.13;100.00
9289;BME280;4683;50.864;12.086;2022-09-12T04:20:22;99219.72;;;13.13;100.00
9289;BME280;4683;50.864;12.086;2022-09-12T04:22:53;99231.13;;;13.14;100.00
9289;BME280;4683;50.864;12.086;2022-09-12T04:25:21;99225.84;;;13.14;100.00
9289;BME280;4683;50.864;12.086;2022-09-12T04:27:51;99236.81;;;13.11;100.00
9289;BME280;4683;50.864;12.086;2022-09-12T04:30:19;99227.59;;;13.07;100.00
9289;BME280;4683;50.864;12.086;2022-09-12T04:32:47;99225.75;;;13.07;100.00
9289;BME280;4683;50.864;12.086;2022-09-12T04:35:16;99232.72;;;13.08;100.00
9289;BME280;4683;50.864;12.086;2022-09-12T04:37:44;99226.56;;;13.08;100.00
9289;BME280;4683;50.864;12.086;2022-09-12T04:40:12;99227.59;;;13.07;100.00
9289;BME280;4683;50.864;12.086;2022-09-12T04:42:46;99226.56;;;13.08;100.00
9289;BME280;4683;50.864;12.086;2022-09-12T04:45:20;99227.44;;;13.08;100.00
9289;BME280;4683;50.864;12.086;2022-09-12T04:47:49;99222.94;;;13.09;100.00
9289;BME280;4683;50.864;12.086;2022-09-12T04:50:18;99222.31;;;13.07;100.00
9289;BME280;4683;50.864;12.086;2022-09-12T04:52:49;99219.84;;;13.05;100.00
9289;BME280;4683;50.864;12.086;2022-09-12T04:55:22;99218.03;;;13.06;100.00
9289;BME280;4683;50.864;12.086;2022-09-12T04:57:57;99222.31;;;13.07;100.00
9289;BME280;4683;50.864;12.086;2022-09-12T05:00:29;99229.19;;;13.01;100.00
9289;BME280;4683;50.864;12.086;2022-09-12T05:03:00;99225.28;;;12.97;100.00
9289;BME280;4683;50.864;12.086;2022-09-12T05:05:37;99219.38;;;12.95;100.00
9289;BME280;4683;50.864;12.086;2022-09-12T05:08:09;99227.13;;;12.97;100.00
9289;BME280;4683;50.864;12.086;2022-09-12T05:10:37;99235.50;;;13.00;100.00
9289;BME280;4683;50.864;12.086;2022-09-12T05:13:06;99234.50;;;13.01;100.00
9289;BME280;4683;50.864;12.086;2022-09-12T05:15:37;99235.09;;;13.03;100.00
9289;BME280;4683;50.864;12.086;2022-09-12T05:18:05;99232.28;;;13.05;100.00
9289;BME280;4683;50.864;12.086;2022-09-12T05:20:34;99231.25;;;13.06;100.00
9289;BME280;4683;50.864;12.086;2022-09-12T05:23:02;99231.06;;;13.07;100.00
9289;BME280;4683;50.864;12.086;2022-09-12T05:25:31;99231.25;;;13.06;100.00
9289;BME280;4683;50.864;12.086;2022-09-12T05:27:59;99237.81;;;13.10;100.00
9289;BME280;4683;50.864;12.086;2022-09-12T05:30:28;99242.56;;;13.21;100.00
9289;BME280;4683;50.864;12.086;2022-09-12T05:32:58;99250.84;;;13.33;100.00
9289;BME280;4683;50.864;12.086;2022-09-12T05:35:26;99251.31;;;13.43;100.00
9289;BME280;4683;50.864;12.086;2022-09-12T05:38:00;99261.56;;;13.53;100.00
9289;BME280;4683;50.864;12.086;2022-09-12T05:40:32;99253.25;;;13.62;100.00
9289;BME280;4683;50.864;12.086;2022-09-12T05:43:01;99265.31;;;13.65;100.00
9289;BME280;4683;50.864;12.086;2022-09-12T05:45:30;99271.22;;;13.67;100.00
9289;BME280;4683;50.864;12.086;2022-09-12T05:48:00;99266.94;;;13.66;100.00
9289;BME280;4683;50.864;12.086;2022-09-12T05:50:31;99272.47;;;13.64;100.00
9289;BME280;4683;50.864;12.086;2022-09-12T05:53:14;99280.03;;;13.67;100.00
9289;BME280;4683;50.864;12.086;2022-09-12T05:55:43;99271.06;;;13.75;100.00
9289;BME280;4683;50.864;12.086;2022-09-12T05:58:11;99279.91;;;13.89;100.00
9289;BME280;4683;50.864;12.086;2022-09-12T06:00:40;99278.97;;;14.03;100.00
9289;BME280;4683;50.864;12.086;2022-09-12T06:03:13;99286.91;;;13.96;100.00
9289;BME280;4683;50.864;12.086;2022-09-12T06:05:53;99270.72;;;13.85;100.00
9289;BME280;4683;50.864;12.086;2022-09-12T06:08:21;99271.94;;;13.82;100.00
9289;BME280;4683;50.864;12.086;2022-09-12T06:10:49;99261.94;;;13.84;100.00
9289;BME280;4683;50.864;12.086;2022-09-12T06:13:18;99260.75;;;13.93;100.00
9289;BME280;4683;50.864;12.086;2022-09-12T06:15:46;99264.28;;;14.01;100.00
9289;BME280;4683;50.864;12.086;2022-09-12T06:18:16;99264.13;;;14.09;100.00
9289;BME280;4683;50.864;12.086;2022-09-12T06:20:44;99267.38;;;14.11;100.00
9289;BME280;4683;50.864;12.086;2022-09-12T06:23:12;99269.22;;;14.17;100.00
9289;BME280;4683;50.864;12.086;2022-09-12T06:25:47;99265.19;;;14.28;100.00
9289;BME280;4683;50.864;12.086;2022-09-12T06:28:17;99264.00;;;14.43;100.00
9289;BME280;4683;50.864;12.086;2022-09-12T06:30:47;99267.75;;;14.49;100.00
9289;BME280;4683;50.864;12.086;2022-09-12T06:33:17;99269.78;;;14.60;100.00
9289;BME280;4683;50.864;12.086;2022-09-12T06:35:46;99273.09;;;14.76;100.00
9289;BME280;4683;50.864;12.086;2022-09-12T06:38:14;99284.97;;;14.93;100.00
9289;BME280;4683;50.864;12.086;2022-09-12T06:40:43;99283.34;;;15.05;100.00
9289;BME280;4683;50.864;12.086;2022-09-12T06:43:12;99292.75;;;15.14;100.00
9289;BME280;4683;50.864;12.086;2022-09-12T06:45:48;99292.72;;;15.21;100.00
9289;BME280;4683;50.864;12.086;2022-09-12T06:48:20;99300.31;;;15.17;100.00
9289;BME280;4683;50.864;12.086;2022-09-12T06:50:56;99296.81;;;15.17;100.00
9289;BME280;4683;50.864;12.086;2022-09-12T06:53:28;99297.63;;;15.11;100.00
9289;BME280;4683;50.864;12.086;2022-09-12T06:56:11;99293.75;;;15.00;100.00
9289;BME280;4683;50.864;12.086;2022-09-12T06:58:41;99291.91;;;15.01;100.00
9289;BME280;4683;50.864;12.086;2022-09-12T07:01:13;99287.00;;;14.97;100.00
9289;BME280;4683;50.864;12.086;2022-09-12T07:03:48;99281.50;;;14.99;100.00
9289;BME280;4683;50.864;12.086;2022-09-12T07:06:20;99289.28;;;15.14;100.00
9289;BME280;4683;50.864;12.086;2022-09-12T07:08:51;99297.22;;;15.20;100.00
9289;BME280;4683;50.864;12.086;2022-09-12T07:11:24;99292.53;;;15.42;100.00
9289;BME280;4683;50.864;12.086;2022-09-12T07:13:55;99297.44;;;15.45;100.00
9289;BME280;4683;50.864;12.086;2022-09-12T07:16:27;99298.66;;;15.36;100.00
9289;BME280;4683;50.864;12.086;2022-09-12T07:18:59;99302.56;;;15.40;100.00
9289;BME280;4683;50.864;12.086;2022-09-12T07:21:29;99304.59;;;15.38;100.00
9289;BME280;4683;50.864;12.086;2022-09-12T07:23:57;99302.56;;;15.40;100.00
9289;BME280;4683;50.864;12.086;2022-09-12T07:26:27;99309.28;;;15.50;100.00
9289;BME280;4683;50.864;12.086;2022-09-12T07:28:57;99311.75;;;15.44;100.00
9289;BME280;4683;50.864;12.086;2022-09-12T07:31:28;99308.66;;;15.61;100.00
9289;BME280;4683;50.864;12.086;2022-09-12T07:34:00;99312.16;;;15.68;100.00
9289;BME280;4683;50.864;12.086;2022-09-12T07:36:31;99307.41;;;15.90;100.00
9289;BME280;4683;50.864;12.086;2022-09-12T07:39:06;99311.59;;;16.24;100.00
9289;BME280;4683;50.864;12.086;2022-09-12T07:41:38;99322.34;;;16.42;100.00
9289;BME280;4683;50.864;12.086;2022-09-12T07:44:07;99324.31;;;16.67;100.00
9289;BME280;4683;50.864;12.086;2022-09-12T07:46:36;99325.25;;;16.86;100.00
9289;BME280;4683;50.864;12.086;2022-09-12T07:49:07;99325.41;;;16.91;100.00
9289;BME280;4683;50.864;12.086;2022-09-12T07:51:35;99321.63;;;17.05;100.00
9289;BME280;4683;50.864;12.086;2022-09-12T07:54:11;99334.63;;;17.20;100.00
9289;BME280;4683;50.864;12.086;2022-09-12T07:56:39;99335.66;;;17.19;100.00
9289;BME280;4683;50.864;12.086;2022-09-12T07:59:09;99336.56;;;16.74;100.00
9289;BME280;4683;50.864;12.086;2022-09-12T08:01:42;99328.66;;;16.55;100.00
9289;BME280;4683;50.864;12.086;2022-09-12T08:04:12;99322.06;;;16.57;100.00
9289;BME280;4683;50.864;12.086;2022-09-12T08:06:40;99319.88;;;16.47;100.00
9289;BME280;4683;50.864;12.086;2022-09-12T08:09:09;99317.38;;;16.53;100.00
9289;BME280;4683;50.864;12.086;2022-09-12T08:11:40;99314.22;;;16.69;100.00
9289;BME280;4683;50.864;12.086;2022-09-12T08:14:09;99312.91;;;16.91;100.00
9289;BME280;4683;50.864;12.086;2022-09-12T08:16:40;99325.09;;;17.06;100.00
9289;BME280;4683;50.864;12.086;2022-09-12T08:19:17;99316.06;;;17.07;100.00
9289;BME280;4683;50.864;12.086;2022-09-12T08:21:48;99321.03;;;17.28;100.00
9289;BME280;4683;50.864;12.086;2022-09-12T08:24:17;99329.63;;;17.30;100.00
9289;BME280;4683;50.864;12.086;2022-09-12T08:26:51;99333.09;;;17.56;100.00
9289;BME280;4683;50.864;12.086;2022-09-12T08:29:29;99335.94;;;17.61;100.00
9289;BME280;4683;50.864;12.086;2022-09-12T08:32:16;99330.88;;;17.53;100.00
9289;BME280;4683;50.864;12.086;2022-09-12T08:34:53;99330.16;;;17.64;100.00
9289;BME280;4683;50.864;12.086;2022-09-12T08:37:21;99339.50;;;17.73;100.00
9289;BME280;4683;50.864;12.086;2022-09-12T08:39:50;99339.50;;;17.73;100.00
9289;BME280;4683;50.864;12.086;2022-09-12T08:42:27;99337.28;;;17.70;100.00
9289;BME280;4683;50.864;12.086;2022-09-12T08:45:10;99342.38;;;17.78;100.00
9289;BME280;4683;50.864;12.086;2022-09-12T08:47:44;99344.00;;;17.97;100.00
9289;BME280;4683;50.864;12.086;2022-09-12T08:50:23;99345.88;;;18.34;100.00
9289;BME280;4683;50.864;12.086;2022-09-12T08:52:56;99359.94;;;18.59;100.00
9289;BME280;4683;50.864;12.086;2022-09-12T08:55:44;99366.78;;;18.37;100.00
9289;BME280;4683;50.864;12.086;2022-09-12T08:58:17;99362.00;;;18.57;100.00
9289;BME280;4683;50.864;12.086;2022-09-12T09:00:59;99365.53;;;18.76;100.00
9289;BME280;4683;50.864;12.086;2022-09-12T09:07:14;99377.38;;;19.10;100.00
9289;BME280;4683;50.864;12.086;2022-09-12T09:10:04;99387.06;;;19.23;100.00
9289;BME280;4683;50.864;12.086;2022-09-12T09:15:42;99377.44;;;19.45;100.00
9289;BME280;4683;50.864;12.086;2022-09-12T09:18:21;99378.16;;;19.41;100.00
9289;BME280;4683;50.864;12.086;2022-09-12T09:20:54;99369.50;;;19.39;100.00
9289;BME280;4683;50.864;12.086;2022-09-12T09:23:41;99378.59;;;19.26;100.00
9289;BME280;4683;50.864;12.086;2022-09-12T09:26:28;99370.31;;;19.39;100.00
9289;BME280;4683;50.864;12.086;2022-09-12T09:29:09;99372.38;;;19.91;100.00
9289;BME280;4683;50.864;12.086;2022-09-12T09:31:54;99371.28;;;20.27;100.00
9289;BME280;4683;50.864;12.086;2022-09-12T09:34:30;99362.84;;;20.59;100.00
9289;BME280;4683;50.864;12.086;2022-09-12T09:37:07;99370.66;;;20.89;100.00
9289;BME280;4683;50.864;12.086;2022-09-12T09:40:19;99364.25;;;21.07;100.00
9289;BME280;4683;50.864;12.086;2022-09-12T09:43:02;99361.69;;;21.28;100.00
9289;BME280;4683;50.864;12.086;2022-09-12T09:45:44;99356.88;;;21.14;100.00
9289;BME280;4683;50.864;12.086;2022-09-12T09:48:21;99357.75;;;21.02;100.00
9289;BME280;4683;50.864;12.086;2022-09-12T09:50:58;99355.06;;;20.86;100.00
9289;BME280;4683;50.864;12.086;2022-09-12T09:53:39;99348.13;;;20.73;100.00
9289;BME280;4683;50.864;12.086;2022-09-12T09:56:31;99342.91;;;21.28;100.00
9289;BME280;4683;50.864;12.086;2022-09-12T09:59:09;99345.03;;;21.77;100.00
9289;BME280;4683;50.864;12.086;2022-09-12T10:02:00;99337.22;;;21.75;99.57
9289;BME280;4683;50.864;12.086;2022-09-12T10:04:40;99336.66;;;21.57;98.68
9289;BME280;4683;50.864;12.086;2022-09-12T10:07:20;99334.78;;;21.57;99.38
9289;BME280;4683;50.864;12.086;2022-09-12T10:10:12;99325.44;;;21.60;100.00
9289;BME280;4683;50.864;12.086;2022-09-12T10:12:45;99318.22;;;21.99;100.00
9289;BME280;4683;50.864;12.086;2022-09-12T10:15:20;99319.50;;;21.96;100.00
9289;BME280;4683;50.864;12.086;2022-09-12T10:17:49;99319.13;;;21.88;100.00
9289;BME280;4683;50.864;12.086;2022-09-12T10:20:40;99316.00;;;21.96;98.58
9289;BME280;4683;50.864;12.086;2022-09-12T10:23:29;99310.97;;;22.43;96.17
9289;BME280;4683;50.864;12.086;2022-09-12T10:26:11;99305.25;;;22.62;94.84
9289;BME280;4683;50.864;12.086;2022-09-12T10:28:44;99306.78;;;22.79;93.57
9289;BME280;4683;50.864;12.086;2022-09-12T10:31:28;99304.16;;;22.85;90.45
9289;BME280;4683;50.864;12.086;2022-09-12T10:33:59;99298.53;;;23.18;89.13
9289;BME280;4683;50.864;12.086;2022-09-12T10:36:36;99303.50;;;22.99;85.64
9289;BME280;4683;50.864;12.086;2022-09-12T10:39:13;99300.69;;;22.35;88.67
9289;BME280;4683;50.864;12.086;2022-09-12T10:42:11;99302.31;;;22.63;90.25
9289;BME280;4683;50.864;12.086;2022-09-12T10:49:27;99284.69;;;23.37;82.69
9289;BME280;4683;50.864;12.086;2022-09-12T10:52:15;99288.69;;;23.34;80.52
9289;BME280;4683;50.864;12.086;2022-09-12T10:54:47;99272.69;;;23.60;81.75
9289;BME280;4683;50.864;12.086;2022-09-12T11:00:27;99275.88;;;23.51;79.93
9289;BME280;4683;50.864;12.086;2022-09-12T11:03:05;99276.28;;;22.69;80.85
9289;BME280;4683;50.864;12.086;2022-09-12T11:05:59;99268.22;;;22.96;81.70
9289;BME280;4683;50.864;12.086;2022-09-12T11:08:57;99268.34;;;23.16;77.61
9289;BME280;4683;50.864;12.086;2022-09-12T11:11:57;99269.84;;;23.34;71.06
9289;BME280;4683;50.864;12.086;2022-09-12T11:14:55;99272.00;;;23.32;77.64
9289;BME280;4683;50.864;12.086;2022-09-12T11:17:41;99270.44;;;23.41;71.23
9289;BME280;4683;50.864;12.086;2022-09-12T11:20:43;99266.06;;;23.30;77.76
9289;BME280;4683;50.864;12.086;2022-09-12T11:23:56;99258.97;;;23.19;70.38
9289;BME280;4683;50.864;12.086;2022-09-12T11:26:46;99265.44;;;23.18;78.71
9289;BME280;4683;50.864;12.086;2022-09-12T11:29:30;99264.44;;;23.34;77.05
9289;BME280;4683;50.864;12.086;2022-09-12T11:32:57;99258.63;;;23.10;71.40
9289;BME280;4683;50.864;12.086;2022-09-12T11:35:32;99266.47;;;23.49;76.21
9289;BME280;4683;50.864;12.086;2022-09-12T11:38:50;99252.34;;;23.32;66.58
9289;BME280;4683;50.864;12.086;2022-09-12T11:41:25;99253.69;;;23.34;72.82
9289;BME280;4683;50.864;12.086;2022-09-12T11:44:07;99258.50;;;23.27;70.10
9289;BME280;4683;50.864;12.086;2022-09-12T11:46:42;99259.94;;;23.40;71.60
9289;BME280;4683;50.864;12.086;2022-09-12T11:49:26;99256.69;;;23.43;66.43
9289;BME280;4683;50.864;12.086;2022-09-12T11:52:03;99249.38;;;23.33;64.71
9289;BME280;4683;50.864;12.086;2022-09-12T11:54:40;99247.78;;;23.37;64.88
9289;BME280;4683;50.864;12.086;2022-09-12T11:57:34;99247.03;;;23.47;65.08
9289;BME280;4683;50.864;12.086;2022-09-12T12:00:14;99239.56;;;23.59;60.63
9289;BME280;4683;50.864;12.086;2022-09-12T12:02:57;99233.44;;;23.21;61.77
9289;BME280;4683;50.864;12.086;2022-09-12T12:05:36;99237.25;;;23.31;66.74
9289;BME280;4683;50.864;12.086;2022-09-12T12:08:07;99235.81;;;23.60;65.97
9289;BME280;4683;50.864;12.086;2022-09-12T12:10:41;99239.47;;;23.86;64.25
9289;BME280;4683;50.864;12.086;2022-09-12T12:13:20;99232.84;;;23.62;65.80
9289;BME280;4683;50.864;12.086;2022-09-12T12:16:11;99233.75;;;23.77;65.10
9289;BME280;4683;50.864;12.086;2022-09-12T12:19:07;99227.97;;;23.53;67.60
9289;BME280;4683;50.864;12.086;2022-09-12T12:21:44;99223.41;;;23.59;68.05
9289;BME280;4683;50.864;12.086;2022-09-12T12:24:22;99222.72;;;23.79;64.96
9289;BME280;4683;50.864;12.086;2022-09-12T12:27:00;99220.66;;;24.01;67.58
9289;BME280;4683;50.864;12.086;2022-09-12T12:29:41;99212.34;;;24.13;61.05
9289;BME280;4683;50.864;12.086;2022-09-12T12:32:24;99213.38;;;24.07;64.82
9289;BME280;4683;50.864;12.086;2022-09-12T12:35:37;99214.84;;;24.45;63.38
9289;BME280;4683;50.864;12.086;2022-09-12T12:38:28;99211.56;;;24.33;60.33
9289;BME280;4683;50.864;12.086;2022-09-12T12:41:44;99205.53;;;23.90;60.30
9289;BME280;4683;50.864;12.086;2022-09-12T12:44:51;99212.91;;;24.30;62.77
9289;BME280;4683;50.864;12.086;2022-09-12T12:47:25;99201.84;;;24.27;59.12
9289;BME280;4683;50.864;12.086;2022-09-12T12:50:11;99202.13;;;24.25;61.32
9289;BME280;4683;50.864;12.086;2022-09-12T12:52:57;99201.84;;;24.27;60.93
9289;BME280;4683;50.864;12.086;2022-09-12T12:55:34;99196.41;;;24.07;61.42
9289;BME280;4683;50.864;12.086;2022-09-12T12:58:05;99195.09;;;24.29;61.40
9289;BME280;4683;50.864;12.086;2022-09-12T13:00:38;99186.25;;;24.70;58.90
9289;BME280;4683;50.864;12.086;2022-09-12T13:03:18;99190.31;;;24.67;57.76
9289;BME280;4683;50.864;12.086;2022-09-12T13:05:58;99187.09;;;24.86;56.18
9289;BME280;4683;50.864;12.086;2022-09-12T13:08:31;99185.38;;;24.23;59.71
9289;BME280;4683;50.864;12.086;2022-09-12T13:11:06;99181.13;;;24.48;59.54
9289;BME280;4683;50.864;12.086;2022-09-12T13:13:50;99169.56;;;24.63;54.50
9289;BME280;4683;50.864;12.086;2022-09-12T13:16:32;99171.69;;;24.96;55.82
9289;BME280;4683;50.864;12.086;2022-09-12T13:19:06;99174.38;;;25.01;53.03
9289;BME280;4683;50.864;12.086;2022-09-12T13:21:44;99169.00;;;24.50;55.00
9289;BME280;4683;50.864;12.086;2022-09-12T13:24:22;99168.69;;;24.93;54.42
9289;BME280;4683;50.864;12.086;2022-09-12T13:26:52;99154.97;;;24.89;54.01
9289;BME280;4683;50.864;12.086;2022-09-12T13:29:25;99161.16;;;24.90;55.58
9289;BME280;4683;50.864;12.086;2022-09-12T13:31:57;99151.72;;;24.87;54.73
9289;BME280;4683;50.864;12.086;2022-09-12T13:34:28;99156.84;;;24.94;54.33
9289;BME280;4683;50.864;12.086;2022-09-12T13:37:30;99163.56;;;25.01;51.82
9289;BME280;4683;50.864;12.086;2022-09-12T13:40:32;99154.44;;;24.51;54.06
9289;BME280;4683;50.864;12.086;2022-09-12T13:43:12;99154.44;;;24.46;55.45
9289;BME280;4683;50.864;12.086;2022-09-12T13:45:45;99145.25;;;24.83;54.23
9289;BME280;4683;50.864;12.086;2022-09-12T13:48:19;99143.09;;;24.85;52.58
9289;BME280;4683;50.864;12.086;2022-09-12T13:50:52;99142.56;;;24.68;56.38
9289;BME280;4683;50.864;12.086;2022-09-12T13:53:23;99145.25;;;24.42;57.26
9289;BME280;4683;50.864;12.086;2022-09-12T13:55:55;99155.19;;;24.21;58.52
9289;BME280;4683;50.864;12.086;2022-09-12T13:58:28;99144.44;;;24.37;56.93
9289;BME280;4683;50.864;12.086;2022-09-12T14:01:06;99142.56;;;24.58;55.53
9289;BME280;4683;50.864;12.086;2022-09-12T14:03:41;99137.97;;;24.68;54.38
9289;BME280;4683;50.864;12.086;2022-09-12T14:06:33;99139.31;;;24.81;54.18
9289;BME280;4683;50.864;12.086;2022-09-12T14:09:12;99142.03;;;24.71;54.22